createdAt,value
2022-08-11T00:00:52.973Z,25.80
2022-08-11T00:05:56.721Z,25.80
2022-08-11T00:11:06.332Z,25.88
2022-08-11T00:16:28.075Z,24.90
2022-08-11T00:21:56.931Z,25.07
2022-08-11T00:26:55.087Z,25.46
2022-08-11T00:32:01.636Z,25.48
2022-08-11T00:37:11.188Z,25.56
2022-08-11T00:42:35.611Z,25.66
2022-08-11T00:48:09.779Z,25.42
2022-08-11T00:53:36.805Z,25.33
2022-08-11T00:59:35.474Z,24.39
2022-08-11T01:05:04.810Z,24.92
2022-08-11T01:10:14.633Z,25.03
2022-08-11T01:15:55.812Z,25.41
2022-08-11T01:21:23.855Z,25.38
2022-08-11T01:27:05.579Z,24.66
2022-08-11T01:32:38.060Z,24.18
2022-08-11T01:37:59.613Z,23.73
2022-08-11T01:43:23.468Z,23.97
2022-08-11T01:48:38.141Z,24.51
2022-08-11T01:53:52.831Z,24.90
2022-08-11T01:59:18.339Z,23.69
2022-08-11T02:04:50.410Z,24.32
2022-08-11T02:10:38.249Z,24.50
2022-08-11T02:15:49.511Z,24.74
2022-08-11T02:21:25.778Z,24.75
2022-08-11T02:26:41.906Z,24.65
2022-08-11T02:32:28.636Z,22.85
2022-08-11T02:37:33.565Z,22.85
2022-08-11T02:42:46.253Z,23.42
2022-08-11T02:48:26.589Z,23.95
2022-08-11T02:53:56.414Z,22.55
2022-08-11T02:59:25.999Z,21.89
2022-08-11T03:04:51.421Z,22.95
2022-08-11T03:10:04.416Z,24.06
2022-08-11T03:15:44.892Z,23.64
2022-08-11T03:21:12.761Z,24.10
2022-08-11T03:26:27.922Z,24.50
2022-08-11T03:31:41.177Z,24.14
2022-08-11T03:37:16.897Z,24.11
2022-08-11T03:42:36.938Z,24.15
2022-08-11T03:47:52.299Z,24.05
2022-08-11T03:53:35.457Z,23.55
2022-08-11T03:58:56.242Z,23.85
2022-08-11T04:04:18.732Z,24.06
2022-08-11T04:09:54.481Z,23.68
2022-08-11T04:15:45.199Z,23.42
2022-08-11T04:21:25.563Z,23.74
2022-08-11T04:26:45.569Z,24.14
2022-08-11T04:32:23.637Z,24.34
2022-08-11T04:38:00.045Z,24.34
2022-08-11T04:43:23.836Z,24.45
2022-08-11T04:48:48.060Z,24.56
2022-08-11T04:54:38.429Z,24.25
2022-08-11T05:00:09.565Z,24.19
2022-08-11T05:05:32.412Z,24.28
2022-08-11T05:11:11.675Z,24.30
2022-08-11T05:16:37.319Z,24.37
2022-08-11T05:22:06.092Z,24.47
2022-08-11T05:27:38.139Z,24.53
2022-08-11T05:33:03.918Z,24.42
2022-08-11T05:38:41.957Z,24.45
2022-08-11T05:44:20.005Z,24.19
2022-08-11T05:49:47.916Z,24.80
2022-08-11T05:55:10.700Z,25.02
2022-08-11T06:00:15.590Z,25.00
2022-08-11T06:05:19.601Z,25.27
2022-08-11T06:10:36.022Z,25.41
2022-08-11T06:15:52.136Z,25.50
2022-08-11T06:20:58.967Z,25.77
2022-08-11T06:26:02.192Z,26.04
2022-08-11T06:31:15.614Z,26.11
2022-08-11T06:36:46.715Z,26.13
2022-08-11T06:42:05.489Z,26.41
2022-08-11T06:47:21.055Z,26.61
2022-08-11T06:52:37.641Z,26.70
2022-08-11T06:58:05.300Z,26.91
2022-08-11T07:03:09.357Z,27.11
2022-08-11T07:08:36.254Z,27.25
2022-08-11T07:13:59.729Z,27.51
2022-08-11T07:19:26.547Z,27.73
2022-08-11T07:25:02.645Z,27.76
2022-08-11T07:30:09.757Z,27.85
2022-08-11T07:35:20.599Z,28.07
2022-08-11T07:40:24.724Z,28.27
2022-08-11T07:45:47.217Z,28.33
2022-08-11T07:51:09.705Z,28.48
2022-08-11T07:56:17.396Z,28.72
2022-08-11T08:01:45.665Z,28.87
2022-08-11T08:07:07.492Z,29.10
2022-08-11T08:12:29.400Z,29.26
2022-08-11T08:18:09.568Z,29.19
2022-08-11T08:23:13.530Z,29.56
2022-08-11T08:28:19.366Z,30.16
2022-08-11T08:33:31.885Z,30.12
2022-08-11T08:38:43.299Z,30.62
2022-08-11T08:43:56.387Z,31.24
2022-08-11T08:49:04.258Z,31.36
2022-08-11T08:54:14.657Z,31.94
2022-08-11T08:59:21.835Z,32.28
2022-08-11T09:04:25.959Z,32.74
2022-08-11T09:09:28.820Z,32.52
2022-08-11T09:14:55.784Z,32.81
2022-08-11T09:20:13.349Z,33.79
2022-08-11T09:25:34.888Z,33.33
2022-08-11T09:30:40.894Z,33.83
2022-08-11T09:35:46.773Z,34.76
2022-08-11T09:40:52.931Z,35.44
2022-08-11T09:46:01.072Z,36.06
2022-08-11T09:51:05.290Z,35.88
2022-08-11T09:56:36.446Z,36.07
2022-08-11T10:01:47.265Z,37.01
2022-08-11T10:07:04.851Z,37.31
2022-08-11T10:12:12.135Z,37.72
2022-08-11T10:17:17.108Z,38.27
2022-08-11T10:22:38.600Z,37.66
2022-08-11T10:28:16.984Z,38.60
2022-08-11T10:33:57.720Z,37.49
2022-08-11T10:39:04.489Z,37.61
2022-08-11T10:44:10.326Z,38.74
2022-08-11T10:49:13.359Z,39.24
2022-08-11T10:54:34.839Z,40.26
2022-08-11T10:59:37.790Z,40.36
2022-08-11T11:05:15.583Z,40.83
2022-08-11T11:10:18.271Z,39.30
2022-08-11T11:15:41.940Z,39.34
2022-08-11T11:20:58.762Z,39.63
2022-08-11T11:26:10.301Z,40.73
2022-08-11T11:31:31.558Z,40.96
2022-08-11T11:36:47.826Z,39.69
2022-08-11T11:41:53.547Z,40.73
2022-08-11T11:46:56.915Z,41.43
2022-08-11T11:52:01.048Z,40.80
2022-08-11T11:57:23.143Z,40.34
2022-08-11T12:02:28.259Z,41.05
2022-08-11T12:08:04.887Z,41.90
2022-08-11T12:13:32.211Z,41.36
2022-08-11T12:18:35.906Z,42.55
2022-08-11T12:24:04.113Z,42.93
2022-08-11T12:29:10.609Z,42.42
2022-08-11T12:34:17.504Z,42.39
2022-08-11T12:40:15.645Z,42.51
2022-08-11T12:45:29.586Z,41.38
2022-08-11T12:50:52.719Z,41.95
2022-08-11T12:56:22.200Z,42.03
2022-08-11T13:01:43.521Z,42.35
2022-08-11T13:06:46.813Z,40.46
2022-08-11T13:12:08.240Z,41.31
2022-08-11T13:17:40.454Z,40.90
2022-08-11T13:22:47.304Z,39.70
2022-08-11T13:27:54.175Z,39.75
2022-08-11T13:32:57.182Z,40.86
2022-08-11T13:38:17.267Z,41.76
2022-08-11T13:43:23.837Z,41.43
2022-08-11T13:48:26.398Z,40.80
2022-08-11T13:53:30.657Z,39.77
2022-08-11T13:58:40.277Z,39.36
2022-08-11T14:04:29.760Z,39.33
2022-08-11T14:09:16.185Z,37.43
2022-08-11T14:14:26.468Z,36.91
2022-08-11T14:19:30.625Z,38.50
2022-08-11T14:24:35.237Z,38.57
2022-08-11T14:29:48.577Z,38.43
2022-08-11T14:34:52.594Z,37.93
2022-08-11T14:40:03.280Z,36.08
2022-08-11T14:45:57.919Z,37.03
2022-08-11T14:50:59.365Z,36.25
2022-08-11T14:56:21.517Z,35.68
2022-08-11T15:01:44.417Z,36.16
2022-08-11T15:06:47.361Z,35.69
2022-08-11T15:12:32.153Z,35.68
2022-08-11T15:17:42.717Z,35.36
2022-08-11T15:23:04.868Z,35.07
2022-08-11T15:28:28.856Z,34.50
2022-08-11T15:33:50.768Z,34.84
2022-08-11T15:39:03.744Z,34.86
2022-08-11T15:44:59.012Z,33.99
2022-08-11T15:50:10.860Z,33.45
2022-08-11T15:55:17.644Z,33.22
2022-08-11T16:00:38.943Z,33.03
2022-08-11T16:05:46.523Z,32.93
2022-08-11T16:10:56.306Z,33.02
2022-08-11T16:16:17.359Z,32.24
2022-08-11T16:21:34.855Z,31.52
2022-08-11T16:27:08.256Z,31.74
2022-08-11T16:32:18.947Z,31.40
2022-08-11T16:37:42.038Z,30.90
2022-08-11T16:43:10.768Z,31.23
2022-08-11T16:48:35.856Z,31.04
2022-08-11T16:53:46.004Z,30.80
2022-08-11T16:59:15.664Z,30.79
2022-08-11T17:04:44.169Z,31.02
2022-08-11T17:10:38.255Z,31.30
2022-08-11T17:15:50.825Z,31.05
2022-08-11T17:20:55.637Z,30.94
2022-08-11T17:26:03.823Z,31.18
2022-08-11T17:31:27.216Z,31.11
2022-08-11T17:36:29.780Z,30.93
2022-08-11T17:41:51.009Z,30.62
2022-08-11T17:47:13.331Z,30.63
2022-08-11T17:52:35.508Z,30.58
2022-08-11T17:57:58.482Z,30.50
2022-08-11T18:03:20.432Z,30.41
2022-08-11T18:08:42.712Z,30.16
2022-08-11T18:14:06.407Z,30.13
2022-08-11T18:19:30.744Z,30.10
2022-08-11T18:24:57.316Z,30.05
2022-08-11T18:30:21.569Z,29.87
2022-08-11T18:35:43.195Z,29.75
2022-08-11T18:41:07.204Z,29.64
2022-08-11T18:46:30.965Z,29.59
2022-08-11T18:51:55.133Z,29.59
2022-08-11T18:57:20.742Z,29.60
2022-08-11T19:02:49.227Z,29.37
2022-08-11T19:08:14.406Z,29.10
2022-08-11T19:13:42.589Z,28.86
2022-08-11T19:19:06.215Z,28.91
2022-08-11T19:24:28.025Z,28.81
2022-08-11T19:30:07.160Z,28.26
2022-08-11T19:35:32.962Z,28.20
2022-08-11T19:40:57.828Z,28.00
2022-08-11T19:46:22.089Z,28.22
2022-08-11T19:51:43.733Z,28.23
2022-08-11T19:57:06.040Z,28.20
2022-08-11T20:02:27.798Z,28.18
2022-08-11T20:07:50.649Z,28.08
2022-08-11T20:13:18.186Z,28.04
2022-08-11T20:18:44.226Z,27.98
2022-08-11T20:24:06.990Z,27.85
2022-08-11T20:29:29.811Z,27.80
2022-08-11T20:34:54.652Z,27.80
2022-08-11T20:40:17.137Z,27.37
2022-08-11T20:45:47.265Z,27.53
2022-08-11T20:51:17.536Z,27.60
2022-08-11T20:56:40.286Z,27.50
2022-08-11T21:02:03.111Z,27.32
2022-08-11T21:07:28.609Z,27.51
2022-08-11T21:12:55.344Z,27.45
2022-08-11T21:18:28.393Z,27.45
2022-08-11T21:23:53.186Z,26.87
2022-08-11T21:29:17.143Z,26.46
2022-08-11T21:34:42.836Z,26.49
2022-08-11T21:40:07.713Z,27.03
2022-08-11T21:45:31.558Z,27.12
2022-08-11T21:50:53.045Z,26.60
2022-08-11T21:56:15.517Z,26.41
2022-08-11T22:01:40.599Z,26.51
2022-08-11T22:07:03.533Z,25.78
2022-08-11T22:12:34.111Z,25.94
2022-08-11T22:18:02.799Z,26.43
2022-08-11T22:23:24.910Z,26.43
2022-08-11T22:28:56.316Z,26.24
2022-08-11T22:34:17.399Z,26.50
2022-08-11T22:39:40.444Z,26.57
2022-08-11T22:45:01.901Z,26.70
2022-08-11T22:50:27.153Z,26.83
2022-08-11T22:55:49.043Z,26.72
2022-08-11T23:01:10.737Z,26.46
2022-08-11T23:06:33.645Z,26.41
2022-08-11T23:12:07.910Z,26.46
2022-08-11T23:17:32.603Z,26.15
2022-08-11T23:22:55.220Z,26.20
2022-08-11T23:28:19.924Z,26.37
2022-08-11T23:33:42.892Z,26.36
2022-08-11T23:39:04.203Z,26.35
2022-08-11T23:44:26.714Z,25.11
2022-08-11T23:49:48.539Z,25.77
2022-08-11T23:55:10.884Z,25.64
